Time;durP1;ratioP1;P1;durP2;ratioP2;P2;SDS_P1;SDS_P2;PMS_P1;PMS_P2;Temp;Humidity;BMP_temperature;BMP_pressure;BME280_temperature;BME280_humidity;BME280_pressure;Samples;Min_cycle;Max_cycle;Signal;HPM_P1;HPM_P2
2024/04/18 00:00:22;;;;;;;40.20;22.20;;;;;;;3.21;100.00;98210.95;272180;1269;22556;-81
2024/04/18 00:06:44;;;;;;;33.00;20.50;;;;;;;3.09;100.00;98215.11;271580;1270;23389;-81
2024/04/18 00:12:46;;;;;;;41.40;21.80;;;;;;;3.02;100.00;98216.45;273261;1268;22381;-81
2024/04/18 00:19:10;;;;;;;30.60;18.40;;;;;;;3.01;100.00;98219.13;273003;1262;22313;-81
2024/04/18 00:25:12;;;;;;;35.30;21.60;;;;;;;2.97;100.00;98215.00;273042;1270;22504;-81
2024/04/18 00:31:31;;;;;;;34.60;21.00;;;;;;;2.92;100.00;98217.34;272977;1269;22254;-81
2024/04/18 00:37:32;;;;;;;36.30;20.40;;;;;;;2.94;100.00;98220.02;273022;1270;22305;-81
2024/04/18 00:43:34;;;;;;;33.70;20.50;;;;;;;2.93;100.00;98222.23;272722;1269;23935;-79
2024/04/18 00:49:36;;;;;;;39.20;23.60;;;;;;;3.00;100.00;98227.67;269869;1270;22531;-81
2024/04/18 00:55:39;;;;;;;44.10;23.90;;;;;;;3.02;100.00;98225.48;270887;1270;23303;-81
2024/04/18 01:02:04;;;;;;;44.30;26.30;;;;;;;3.07;100.00;98225.92;272782;1269;23399;-81
2024/04/18 01:08:14;;;;;;;46.90;27.30;;;;;;;3.15;100.00;98231.96;272966;1270;23082;-81
2024/04/18 01:14:36;;;;;;;45.30;27.40;;;;;;;3.26;100.00;98234.02;272952;1268;24385;-81
2024/04/18 01:20:38;;;;;;;49.70;28.20;;;;;;;3.34;100.00;98230.31;272887;1270;22390;-81
2024/04/18 01:26:40;;;;;;;53.30;28.90;;;;;;;3.40;100.00;98229.64;272908;1270;22294;-80
2024/04/18 01:32:41;;;;;;;52.80;28.30;;;;;;;3.45;100.00;98234.08;273068;1270;22254;-81
2024/04/18 01:38:43;;;;;;;61.40;31.20;;;;;;;3.47;100.00;98228.20;272699;1270;23185;-80
2024/04/18 01:45:05;;;;;;;54.10;29.60;;;;;;;3.50;100.00;98227.35;270571;1270;23484;-82
2024/04/18 01:51:12;;;;;;;54.40;29.90;;;;;;;3.50;100.00;98233.30;272362;1270;22555;-80
2024/04/18 01:57:14;;;;;;;55.00;29.60;;;;;;;3.47;100.00;98233.65;269481;1269;22530;-81
2024/04/18 02:03:36;;;;;;;53.90;29.40;;;;;;;3.41;100.00;98236.98;271525;1269;22388;-81
2024/04/18 02:10:04;;;;;;;54.40;30.00;;;;;;;3.36;100.00;98238.94;270012;1269;24342;-80
2024/04/18 02:16:30;;;;;;;62.50;31.80;;;;;;;3.31;100.00;98240.73;272092;1270;22633;-81
2024/04/18 02:23:31;;;;;;;51.30;26.60;;;;;;;3.31;100.00;98241.48;273434;1270;22232;-81
2024/04/18 02:30:33;;;;;;;52.70;29.30;;;;;;;3.29;100.00;98241.20;273681;1272;22315;-81
2024/04/18 02:37:27;;;;;;;55.50;30.60;;;;;;;3.32;100.00;98242.70;273450;1272;22259;-80
2024/04/18 02:44:30;;;;;;;56.80;32.10;;;;;;;3.34;100.00;98240.92;273492;1270;22260;-80
2024/04/18 02:50:32;;;;;;;59.20;33.30;;;;;;;3.34;100.00;98238.98;273129;1270;23393;-81
2024/04/18 02:56:54;;;;;;;63.40;33.50;;;;;;;3.18;100.00;98236.45;273589;1260;23027;-80
2024/04/18 03:02:55;;;;;;;49.90;28.60;;;;;;;2.97;100.00;98230.90;273154;1269;22506;-83
2024/04/18 03:09:13;;;;;;;55.80;31.70;;;;;;;2.85;100.00;98233.16;273372;1270;22310;-80
2024/04/18 03:15:51;;;;;;;62.10;33.80;;;;;;;2.77;100.00;98228.15;273711;1266;23433;-80
2024/04/18 03:21:57;;;;;;;58.80;30.30;;;;;;;2.69;100.00;98224.91;273383;1255;22242;-80
2024/04/18 03:28:18;;;;;;;58.10;32.00;;;;;;;2.64;100.00;98227.99;273543;1270;22267;-80
2024/04/18 03:34:40;;;;;;;68.90;33.10;;;;;;;2.64;100.00;98235.49;273457;1270;22208;-80
2024/04/18 03:40:56;;;;;;;56.80;30.80;;;;;;;2.63;100.00;98245.05;273242;1269;22375;-80
2024/04/18 03:46:58;;;;;;;62.00;32.30;;;;;;;2.64;100.00;98242.90;273208;1260;22261;-80
2024/04/18 03:53:32;;;;;;;69.70;36.40;;;;;;;2.71;100.00;98246.96;272710;1270;22305;-80
2024/04/18 03:59:49;;;;;;;60.80;32.10;;;;;;;2.79;100.00;98248.78;273093;1272;22390;-80
2024/04/18 04:06:11;;;;;;;67.90;35.30;;;;;;;2.85;100.00;98251.27;273305;1269;22256;-80
2024/04/18 04:12:20;;;;;;;80.60;40.70;;;;;;;2.91;100.00;98256.60;273691;1276;22371;-80
2024/04/18 04:18:41;;;;;;;75.50;39.30;;;;;;;2.98;100.00;98265.09;272629;1269;22555;-80
2024/04/18 04:25:32;;;;;;;71.70;38.80;;;;;;;3.06;100.00;98269.78;270174;1268;22270;-80
2024/04/18 04:31:34;;;;;;;76.50;37.90;;;;;;;3.07;100.00;98279.95;271423;1270;22285;-82
2024/04/18 04:37:57;;;;;;;71.30;35.30;;;;;;;3.09;100.00;98282.62;272673;1270;23485;-79
2024/04/18 04:44:19;;;;;;;79.00;39.60;;;;;;;3.10;100.00;98287.06;273609;1269;22260;-80
2024/04/18 04:50:57;;;;;;;80.50;40.50;;;;;;;3.16;100.00;98294.05;273697;1273;22246;-80
2024/04/18 04:57:21;;;;;;;54.30;27.30;;;;;;;3.25;100.00;98295.58;273151;1272;22085;-80
2024/04/18 05:03:42;;;;;;;90.10;42.00;;;;;;;3.26;100.00;98308.59;273267;1266;22385;-80
2024/04/18 05:09:59;;;;;;;;;;;;;;;3.26;100.00;98320.05;269962;1270;22505;-81
2024/04/18 05:16:41;;;;;;;76.30;35.40;;;;;;;3.31;100.00;98325.91;269776;1272;22279;-80
2024/04/18 05:22:47;;;;;;;76.40;38.00;;;;;;;3.40;100.00;98332.13;272770;1270;22251;-81
2024/04/18 05:35:08;;;;;;;70.20;36.50;;;;;;;3.53;100.00;98340.84;272180;1269;22280;-80
2024/04/18 05:41:50;;;;;;;82.40;36.70;;;;;;;3.55;100.00;98343.23;272891;1269;22537;-80
2024/04/18 05:48:22;;;;;;;68.90;34.60;;;;;;;3.72;100.00;98344.77;272331;1270;22959;-80
2024/04/18 05:54:25;;;;;;;66.10;34.50;;;;;;;3.85;100.00;98344.60;272979;1269;22426;-81
2024/04/18 06:00:59;;;;;;;71.40;36.70;;;;;;;4.03;100.00;98344.83;272887;1270;22297;-80
2024/04/18 06:07:23;;;;;;;92.60;46.40;;;;;;;4.26;100.00;98348.70;273425;1272;22241;-80
2024/04/18 06:13:25;;;;;;;95.80;49.00;;;;;;;4.38;100.00;98348.30;273158;1269;22400;-81
2024/04/18 06:19:27;;;;;;;85.40;45.20;;;;;;;4.58;100.00;98348.00;273133;1270;22394;-82
2024/04/18 06:25:35;;;;;;;72.60;40.60;;;;;;;4.80;100.00;98349.84;273277;1270;22797;-80
2024/04/18 06:31:37;;;;;;;71.90;39.40;;;;;;;5.04;100.00;98352.25;272942;1270;22382;-82
2024/04/18 06:37:38;;;;;;;76.60;41.10;;;;;;;5.21;100.00;98353.32;272905;1267;23388;-81
2024/04/18 06:43:40;;;;;;;88.90;46.10;;;;;;;5.43;100.00;98361.88;273091;1270;22375;-80
2024/04/18 06:50:02;;;;;;;80.70;43.00;;;;;;;5.58;100.00;98367.93;273095;1270;23421;-80
2024/04/18 06:56:03;;;;;;;81.00;43.50;;;;;;;5.86;100.00;98366.41;272246;1270;25317;-80
2024/04/18 07:02:05;;;;;;;74.30;43.80;;;;;;;6.09;100.00;98365.25;272936;1263;22844;-81
2024/04/18 07:08:28;;;;;;;77.10;44.10;;;;;;;6.40;100.00;98364.25;272558;1270;22578;-81
2024/04/18 07:14:30;;;;;;;92.90;52.90;;;;;;;6.68;100.00;98371.86;272995;1270;22418;-81
2024/04/18 07:21:04;;;;;;;78.50;43.70;;;;;;;6.83;100.00;98367.29;273143;1270;23067;-81
2024/04/18 07:27:25;;;;;;;75.70;43.20;;;;;;;6.86;100.00;98362.13;273271;1270;22549;-80
2024/04/18 07:34:10;;;;;;;65.90;38.90;;;;;;;7.19;100.00;98363.24;273186;1270;22516;-81
2024/04/18 07:40:15;;;;;;;53.70;35.20;;;;;;;7.49;100.00;98358.14;272992;1257;23660;-80
2024/04/18 07:46:38;;;;;;;48.60;29.50;;;;;;;7.70;100.00;98358.33;273009;1270;22212;-81
2024/04/18 07:53:22;;;;;;;51.80;29.10;;;;;;;7.91;100.00;98367.70;273256;1269;22972;-80
2024/04/18 08:00:05;;;;;;;49.90;30.40;;;;;;;8.12;100.00;98371.20;271477;1270;23474;-81
2024/04/18 08:06:48;;;;;;;38.10;26.40;;;;;;;8.04;100.00;98367.05;272297;1273;22496;-81
2024/04/18 08:12:49;;;;;;;38.10;26.20;;;;;;;8.03;100.00;98367.11;272150;1269;23079;-82
2024/04/18 08:18:52;;;;;;;39.90;24.20;;;;;;;8.17;100.00;98363.31;272873;1281;22319;-81
2024/04/18 08:25:12;;;;;;;37.90;25.40;;;;;;;8.57;100.00;98359.97;272720;1275;22271;-80
2024/04/18 08:31:13;;;;;;;41.20;27.50;;;;;;;9.07;100.00;98357.79;272207;1273;22707;-81
2024/04/18 08:37:17;;;;;;;35.50;24.10;;;;;;;9.17;100.00;98358.25;271449;1270;25241;-81
2024/04/18 08:43:39;;;;;;;47.70;23.40;;;;;;;8.83;100.00;98361.20;270106;1269;22568;-80
2024/04/18 08:50:21;;;;;;;37.50;22.10;;;;;;;8.39;100.00;98367.05;272427;1253;22274;-81
2024/04/18 08:57:45;;;;;;;35.20;23.70;;;;;;;7.90;100.00;98369.92;273458;1270;22382;-81
2024/04/18 09:04:36;;;;;;;29.20;20.20;;;;;;;7.50;100.00;98378.93;273129;1270;22407;-81
2024/04/18 09:11:20;;;;;;;28.40;18.90;;;;;;;7.31;100.00;98385.36;273453;1270;22267;-81
2024/04/18 09:18:39;;;;;;;29.50;18.50;;;;;;;7.28;100.00;98381.73;272808;1270;22227;-81
2024/04/18 09:25:03;;;;;;;29.60;20.30;;;;;;;7.36;100.00;98375.63;273555;1270;23397;-81
2024/04/18 09:31:48;;;;;;;30.00;19.10;;;;;;;7.66;100.00;98370.43;273466;1270;22273;-81
2024/04/18 09:38:46;;;;;;;29.80;19.00;;;;;;;8.35;100.00;98362.15;273655;1273;22387;-81
2024/04/18 09:45:14;;;;;;;27.00;18.50;;;;;;;9.16;100.00;98354.64;271242;1269;22651;-83
2024/04/18 09:51:16;;;;;;;22.00;15.70;;;;;;;10.65;99.59;98347.38;271437;1269;22439;-82
2024/04/18 09:57:58;;;;;;;20.30;13.20;;;;;;;11.78;98.87;98339.21;272110;1269;22996;-82
2024/04/18 10:04:08;;;;;;;15.70;10.60;;;;;;;11.91;95.43;98342.08;273236;1269;22485;-82
2024/04/18 10:10:31;;;;;;;14.20;8.90;;;;;;;11.60;92.87;98344.19;271646;1270;22655;-81
2024/04/18 10:16:44;;;;;;;11.80;8.70;;;;;;;10.82;89.41;98349.71;269436;1270;22584;-81
2024/04/18 10:23:26;;;;;;;20.00;10.10;;;;;;;9.84;88.02;98365.21;270883;1264;24903;-82
2024/04/18 10:30:49;;;;;;;14.40;7.00;;;;;;;8.76;91.78;98380.38;272694;1270;22477;-83
2024/04/18 10:36:52;;;;;;;7.40;5.60;;;;;;;8.08;93.77;98386.26;272314;1267;22579;-81
2024/04/18 10:43:09;;;;;;;11.20;6.50;;;;;;;7.76;94.24;98376.46;272209;1268;22328;-81
2024/04/18 10:50:31;;;;;;;17.80;9.00;;;;;;;7.77;95.09;98376.02;273520;1270;22739;-81
2024/04/18 10:57:14;;;;;;;14.50;8.50;;;;;;;8.20;95.61;98372.77;273456;1263;22243;-81
2024/04/18 11:04:10;;;;;;;14.10;8.00;;;;;;;8.55;94.80;98372.91;273870;1269;22277;-81
2024/04/18 11:10:12;;;;;;;8.90;5.40;;;;;;;8.54;93.58;98378.65;270479;1269;22408;-80
2024/04/18 11:16:54;;;;;;;6.00;3.60;;;;;;;8.28;92.31;98392.48;273347;1272;22300;-80
2024/04/18 11:23:24;;;;;;;5.30;3.20;;;;;;;7.70;92.10;98396.39;273587;1265;22274;-81
2024/04/18 11:29:54;;;;;;;5.30;3.10;;;;;;;7.67;93.56;98393.39;273747;1270;22256;-80
2024/04/18 11:36:16;;;;;;;5.10;2.80;;;;;;;8.10;92.91;98395.07;273144;1263;22294;-81
2024/04/18 11:42:21;;;;;;;4.80;3.20;;;;;;;7.93;92.95;98400.48;273613;1270;22743;-81
2024/04/18 11:49:05;;;;;;;5.00;3.30;;;;;;;7.68;95.03;98415.12;270612;1269;23667;-84
2024/04/18 11:55:14;;;;;;;9.10;4.90;;;;;;;7.48;95.56;98417.33;270936;1269;22256;-82
2024/04/18 12:01:15;;;;;;;10.10;6.50;;;;;;;7.29;96.24;98432.08;272025;1268;22610;-81
2024/04/18 12:07:17;;;;;;;9.80;6.20;;;;;;;6.98;95.95;98425.14;269723;1267;24241;-81
2024/04/18 12:13:19;;;;;;;11.20;7.00;;;;;;;6.73;96.44;98424.72;270805;1269;23524;-81
2024/04/18 12:19:50;;;;;;;15.70;9.50;;;;;;;6.65;97.14;98420.62;270126;1269;22498;-80
2024/04/18 12:26:17;;;;;;;11.50;8.50;;;;;;;6.81;97.47;98421.98;269497;1269;22550;-80
2024/04/18 12:32:39;;;;;;;9.20;6.60;;;;;;;7.10;97.60;98424.93;270123;1262;23009;-81
2024/04/18 12:39:01;;;;;;;7.30;4.90;;;;;;;7.65;97.89;98422.92;269270;1270;23723;-81
2024/04/18 12:45:05;;;;;;;7.50;5.20;;;;;;;7.97;96.77;98423.35;270519;1269;22304;-80
2024/04/18 12:51:07;;;;;;;5.90;4.20;;;;;;;8.07;95.57;98431.34;270228;1262;22574;-81
2024/04/18 12:57:18;;;;;;;12.10;4.60;;;;;;;8.03;95.73;98433.78;269870;1269;22599;-80
2024/04/18 13:03:40;;;;;;;6.40;4.80;;;;;;;8.05;96.83;98430.61;272796;1269;22383;-81
2024/04/18 13:10:06;;;;;;;10.00;5.90;;;;;;;8.31;96.35;98434.59;270599;1269;22260;-81
2024/04/18 13:16:52;;;;;;;10.40;6.20;;;;;;;8.49;94.66;98425.75;272808;1269;25351;-81
2024/04/18 13:23:47;;;;;;;7.00;4.20;;;;;;;8.43;94.46;98432.70;272691;1269;22278;-80
2024/04/18 13:30:09;;;;;;;8.00;3.90;;;;;;;8.03;93.16;98442.20;273346;1269;23460;-80
2024/04/18 13:36:31;;;;;;;5.70;3.90;;;;;;;7.81;93.05;98441.29;273318;1262;22308;-80
2024/04/18 13:43:13;;;;;;;6.10;3.30;;;;;;;7.84;93.02;98436.96;273287;1270;22250;-80
2024/04/18 13:49:59;;;;;;;6.00;3.60;;;;;;;8.32;93.47;98429.14;273256;1270;22615;-80
2024/04/18 13:56:21;;;;;;;3.50;2.80;;;;;;;8.64;90.62;98425.28;273604;1271;23117;-81
2024/04/18 14:02:42;;;;;;;5.00;3.00;;;;;;;8.85;89.98;98425.48;270590;1269;22539;-81
2024/04/18 14:09:10;;;;;;;8.00;3.80;;;;;;;9.27;89.03;98419.17;273095;1266;22404;-81
2024/04/18 14:22:26;;;;;;;3.60;2.60;;;;;;;9.22;85.55;98409.86;273228;1269;22260;-81
2024/04/18 14:28:27;;;;;;;7.00;3.20;;;;;;;8.96;84.43;98409.50;272663;1269;25446;-80
2024/04/18 14:34:48;;;;;;;7.40;3.60;;;;;;;8.73;84.44;98406.96;270164;1270;23198;-80
2024/04/18 14:40:53;;;;;;;11.90;4.10;;;;;;;8.58;83.57;98413.69;271801;1262;22383;-81
2024/04/18 14:46:57;;;;;;;10.00;5.90;;;;;;;8.49;83.58;98420.92;273325;1265;22339;-80
2024/04/18 14:53:39;;;;;;;6.70;3.50;;;;;;;8.46;84.62;98426.73;273179;1270;23625;-81
2024/04/18 15:00:23;;;;;;;4.40;3.30;;;;;;;8.42;83.80;98432.23;273193;1269;22300;-81
2024/04/18 15:06:27;;;;;;;7.80;3.60;;;;;;;8.36;84.26;98442.36;273094;1269;22407;-82
2024/04/18 15:13:14;;;;;;;6.40;4.30;;;;;;;8.12;83.44;98464.27;273277;1269;23164;-81
2024/04/18 15:19:18;;;;;;;8.10;4.30;;;;;;;7.43;84.23;98482.14;271824;1260;23216;-79
2024/04/18 15:25:38;;;;;;;7.30;3.70;;;;;;;6.89;86.44;98491.54;270247;1269;23666;-80
2024/04/18 15:31:40;;;;;;;6.50;4.00;;;;;;;6.64;88.01;98490.92;272430;1270;22464;-81
2024/04/18 15:38:02;;;;;;;7.90;4.50;;;;;;;6.48;89.27;98506.02;273173;1270;22253;-80
2024/04/18 15:44:47;;;;;;;7.40;4.30;;;;;;;6.39;90.03;98512.45;273470;1269;22658;-80
2024/04/18 15:51:24;;;;;;;5.40;3.80;;;;;;;6.30;90.87;98512.41;272508;1269;24771;-80
2024/04/18 15:58:21;;;;;;;6.30;3.40;;;;;;;6.18;89.94;98500.91;268723;1262;22987;-80
2024/04/18 16:04:23;;;;;;;4.30;3.10;;;;;;;6.09;91.69;98501.73;269020;1269;23909;-81
2024/04/18 16:10:56;;;;;;;9.20;4.60;;;;;;;6.25;93.03;98503.92;271279;1270;22459;-81
2024/04/18 16:17:02;;;;;;;6.20;4.10;;;;;;;6.32;93.49;98507.66;272560;1269;23171;-80
2024/04/18 16:23:26;;;;;;;7.10;4.70;;;;;;;6.35;93.89;98511.13;272936;1269;22450;-82
2024/04/18 16:29:46;;;;;;;6.80;4.30;;;;;;;6.37;94.84;98517.23;273776;1272;22275;-80
2024/04/18 16:36:46;;;;;;;11.60;7.50;;;;;;;6.38;94.38;98522.20;273249;1253;22355;-80
2024/04/18 16:42:47;;;;;;;12.00;7.50;;;;;;;6.23;93.81;98526.48;271555;1270;22389;-79
2024/04/18 16:49:11;;;;;;;12.30;8.00;;;;;;;6.11;94.83;98532.23;273198;1270;22452;-81
2024/04/18 16:55:53;;;;;;;11.30;7.20;;;;;;;6.07;95.28;98535.94;273214;1270;22368;-80
2024/04/18 17:02:16;;;;;;;10.10;7.60;;;;;;;6.05;96.07;98544.36;273283;1269;23322;-80
2024/04/18 17:09:00;;;;;;;10.60;7.90;;;;;;;6.06;96.78;98554.63;273482;1270;22272;-80
2024/04/18 17:15:03;;;;;;;12.10;8.10;;;;;;;5.97;96.99;98566.84;273251;1269;22523;-80
2024/04/18 17:21:46;;;;;;;15.00;9.20;;;;;;;5.78;97.43;98571.97;273143;1270;22418;-80
2024/04/18 17:28:28;;;;;;;14.10;9.40;;;;;;;5.72;98.27;98568.65;273689;1277;22939;-80
2024/04/18 17:35:55;;;;;;;14.30;9.00;;;;;;;5.66;98.40;98560.13;273134;1263;22548;-79
2024/04/18 17:42:41;;;;;;;13.40;9.50;;;;;;;5.55;98.44;98566.61;273410;1270;22292;-80
2024/04/18 17:49:23;;;;;;;18.90;12.30;;;;;;;5.52;99.59;98570.95;272956;1269;23066;-80
2024/04/18 17:55:24;;;;;;;19.60;13.90;;;;;;;5.52;99.87;98574.59;272913;1260;23228;-80
2024/04/18 18:01:26;;;;;;;24.00;13.90;;;;;;;5.50;99.26;98574.77;272770;1264;22545;-80
2024/04/18 18:07:50;;;;;;;27.70;16.70;;;;;;;5.39;99.52;98580.78;263588;1269;10002034;-83
2024/04/18 18:14:11;;;;;;;24.90;14.90;;;;;;;5.38;100.00;98590.31;272313;1269;22467;-80
2024/04/18 18:21:07;;;;;;;18.90;13.00;;;;;;;5.37;100.00;98601.08;273063;1269;22432;-80
2024/04/18 18:27:29;;;;;;;22.60;14.00;;;;;;;5.22;100.00;98603.48;273056;1269;22315;-80
2024/04/18 18:33:51;;;;;;;21.20;14.50;;;;;;;5.08;100.00;98604.65;272882;1269;22387;-81
2024/04/18 18:39:52;;;;;;;30.70;15.40;;;;;;;4.85;100.00;98613.64;272654;1260;22448;-80
2024/04/18 18:45:54;;;;;;;20.90;13.20;;;;;;;4.69;100.00;98622.96;273429;1266;22445;-80
2024/04/18 18:51:56;;;;;;;30.20;14.70;;;;;;;4.54;100.00;98628.89;273110;1270;22413;-80
2024/04/18 18:58:10;;;;;;;26.00;14.10;;;;;;;4.36;100.00;98637.34;272787;1269;22365;-79
2024/04/18 19:04:32;;;;;;;22.40;12.70;;;;;;;4.19;100.00;98643.95;273474;1272;22224;-80
2024/04/18 19:10:36;;;;;;;21.10;14.20;;;;;;;4.07;100.00;98646.69;272915;1270;22313;-79
2024/04/18 19:17:01;;;;;;;21.70;13.80;;;;;;;4.06;100.00;98648.13;273336;1272;23395;-80
2024/04/18 19:23:03;;;;;;;24.30;14.20;;;;;;;4.15;100.00;98653.04;273474;1271;22398;-80
2024/04/18 19:29:21;;;;;;;26.40;16.30;;;;;;;4.20;100.00;98658.05;273509;1272;22264;-79
2024/04/18 19:35:22;;;;;;;26.30;17.10;;;;;;;4.16;100.00;98665.79;273552;1271;22398;-79
2024/04/18 19:41:44;;;;;;;29.20;18.40;;;;;;;4.13;100.00;98668.61;273338;1265;22308;-80
2024/04/18 19:48:06;;;;;;;34.70;19.80;;;;;;;4.10;100.00;98666.27;273528;1271;22423;-80
2024/04/18 19:54:28;;;;;;;32.40;19.50;;;;;;;4.09;100.00;98668.95;273378;1270;22366;-79
2024/04/18 20:01:13;;;;;;;33.80;20.30;;;;;;;4.08;100.00;98677.42;273184;1269;22230;-79
2024/04/18 20:07:24;;;;;;;32.90;19.40;;;;;;;4.07;100.00;98680.88;272999;1257;22424;-79
2024/04/18 20:13:26;;;;;;;31.20;20.90;;;;;;;4.06;100.00;98686.80;273188;1270;22520;-79
2024/04/18 20:19:47;;;;;;;16.10;11.10;;;;;;;4.01;100.00;98690.61;273487;1270;23012;-79
2024/04/18 20:26:09;;;;;;;10.70;8.10;;;;;;;3.93;100.00;98694.30;273293;1264;22287;-80
2024/04/18 20:32:11;;;;;;;13.40;6.80;;;;;;;3.89;100.00;98702.30;273173;1269;23102;-80
2024/04/18 20:38:13;;;;;;;7.90;5.20;;;;;;;3.86;100.00;98714.09;273121;1269;22426;-80
2024/04/18 20:44:16;;;;;;;8.60;4.10;;;;;;;3.81;100.00;98717.11;273913;1273;22288;-80
2024/04/18 20:50:32;;;;;;;6.00;3.70;;;;;;;3.78;100.00;98722.41;271471;1269;22446;-79
2024/04/18 20:56:54;;;;;;;10.00;3.70;;;;;;;3.74;100.00;98717.73;273107;1269;23203;-80
2024/04/18 21:02:55;;;;;;;7.80;3.90;;;;;;;3.75;100.00;98715.83;271755;1270;23343;-82
2024/04/18 21:09:17;;;;;;;7.70;4.00;;;;;;;3.79;100.00;98715.01;272876;1267;22394;-80
2024/04/18 21:15:18;;;;;;;10.10;6.70;;;;;;;3.79;100.00;98711.94;269227;1269;5416357;-79
2024/04/18 21:22:00;;;;;;;17.00;8.70;;;;;;;3.79;100.00;98711.24;270822;1269;22603;-80
2024/04/18 21:28:22;;;;;;;14.50;7.60;;;;;;;3.78;100.00;98708.20;272168;1269;22779;-81
2024/04/18 21:34:24;;;;;;;16.30;9.50;;;;;;;3.77;100.00;98704.61;272311;1270;22254;-80
2024/04/18 21:40:27;;;;;;;18.90;12.30;;;;;;;3.78;100.00;98707.17;273165;1270;22841;-80
2024/04/18 21:47:09;;;;;;;25.40;16.20;;;;;;;3.78;100.00;98705.23;273445;1263;22273;-80
2024/04/18 21:54:32;;;;;;;25.70;14.70;;;;;;;3.81;100.00;98707.52;273227;1270;22419;-80
2024/04/18 22:01:14;;;;;;;28.40;17.30;;;;;;;3.85;100.00;98706.88;273216;1270;23324;-79
2024/04/18 22:07:22;;;;;;;26.00;15.60;;;;;;;3.84;100.00;98709.17;273227;1270;22452;-80
2024/04/18 22:13:26;;;;;;;30.60;17.30;;;;;;;3.82;100.00;98711.33;273022;1270;22318;-80
2024/04/18 22:19:28;;;;;;;35.20;16.90;;;;;;;3.83;100.00;98713.29;273443;1270;22384;-79
2024/04/18 22:25:58;;;;;;;26.30;15.10;;;;;;;3.83;100.00;98716.94;273049;1272;22436;-79
2024/04/18 22:32:21;;;;;;;23.30;15.30;;;;;;;3.79;100.00;98715.10;273333;1270;22257;-80
2024/04/18 22:38:45;;;;;;;24.40;13.80;;;;;;;3.73;100.00;98714.15;273229;1266;23200;-79
2024/04/18 22:45:27;;;;;;;23.30;14.40;;;;;;;3.66;100.00;98715.06;273209;1270;22893;-80
2024/04/18 22:52:04;;;;;;;21.90;13.30;;;;;;;3.64;100.00;98718.17;271885;1271;24238;-80
2024/04/18 22:58:46;;;;;;;20.70;12.20;;;;;;;3.64;100.00;98715.22;272094;1270;22297;-80
2024/04/18 23:05:48;;;;;;;21.70;12.70;;;;;;;3.66;100.00;98714.98;271001;1270;23196;-80
2024/04/18 23:12:10;;;;;;;21.10;12.90;;;;;;;3.61;100.00;98713.98;273110;1270;22303;-80
2024/04/18 23:18:11;;;;;;;23.70;13.70;;;;;;;3.59;100.00;98717.11;273180;1270;22427;-79
2024/04/18 23:24:13;;;;;;;24.00;14.20;;;;;;;3.60;100.00;98715.23;272181;1270;23368;-80
2024/04/18 23:30:55;;;;;;;23.30;14.60;;;;;;;3.61;100.00;98713.42;273117;1269;22244;-80
2024/04/18 23:37:17;;;;;;;31.00;15.40;;;;;;;3.62;100.00;98713.52;273432;1270;22242;-79
2024/04/18 23:44:01;;;;;;;21.80;13.90;;;;;;;3.63;100.00;98715.04;273046;1269;22286;-80
2024/04/18 23:50:23;;;;;;;22.60;15.00;;;;;;;3.62;100.00;98711.90;273678;1277;22240;-80
2024/04/18 23:57:05;;;;;;;27.00;16.00;;;;;;;3.59;100.00;98705.61;273474;1273;22252;-80
